Time;durP1;ratioP1;P1;durP2;ratioP2;P2;SDS_P1;SDS_P2;PMS_P1;PMS_P2;Temp;Humidity;BMP_temperature;BMP_pressure;BME280_temperature;BME280_humidity;BME280_pressure;Samples;Min_cycle;Max_cycle;Signal;HPM_P1;HPM_P2
2022/12/19 00:00:21;;;;;;;;;;;;;;;0.11;100.00;101636.94;5278010;28;20045;-67
2022/12/19 00:02:52;;;;;;;;;;;;;;;0.11;100.00;101641.34;5273683;28;20430;-67
2022/12/19 00:05:24;;;;;;;;;;;;;;;0.08;100.00;101631.78;5273485;28;19973;-65
2022/12/19 00:07:56;;;;;;;;;;;;;;;0.14;100.00;101630.78;5270696;28;19920;-65
2022/12/19 00:10:27;;;;;;;;;;;;;;;0.18;100.00;101624.56;5287744;28;19916;-65
2022/12/19 00:12:58;;;;;;;;;;;;;;;0.24;100.00;101610.47;5272296;28;19924;-65
2022/12/19 00:15:29;;;;;;;;;;;;;;;0.17;100.00;101626.34;5274825;28;20397;-65
2022/12/19 00:18:00;;;;;;;;;;;;;;;0.18;100.00;101612.31;5273393;28;19920;-66
2022/12/19 00:20:31;;;;;;;;;;;;;;;0.23;100.00;101627.97;5281094;28;20586;-66
2022/12/19 00:23:03;;;;;;;;;;;;;;;0.21;100.00;101616.63;5278536;28;19924;-65
2022/12/19 00:25:34;;;;;;;;;;;;;;;0.22;100.00;101622.75;5285560;28;19916;-65
2022/12/19 00:28:05;;;;;;;;;;;;;;;0.28;100.00;101605.09;5276918;28;19920;-65
2022/12/19 00:30:36;;;;;;;;;;;;;;;0.25;100.00;101605.19;5281195;28;19956;-65
2022/12/19 00:33:07;;;;;;;;;;;;;;;0.27;100.00;101607.75;5284386;28;19924;-65
2022/12/19 00:35:39;;;;;;;;;;;;;;;0.28;100.00;101607.72;5282104;28;19942;-65
2022/12/19 00:38:10;;;;;;;;;;;;;;;0.31;100.00;101602.44;5274604;28;19974;-65
2022/12/19 00:40:41;;;;;;;;;;;;;;;0.34;100.00;101594.47;5273080;28;21136;-65
2022/12/19 00:43:12;;;;;;;;;;;;;;;0.35;100.00;101592.72;5274123;28;20485;-65
2022/12/19 00:45:43;;;;;;;;;;;;;;;0.36;100.00;101586.56;5273087;28;19923;-65
2022/12/19 00:48:14;;;;;;;;;;;;;;;0.43;100.00;101589.94;5274828;28;19920;-65
2022/12/19 00:50:46;;;;;;;;;;;;;;;0.40;100.00;101601.34;5285136;28;20369;-65
2022/12/19 00:53:17;;;;;;;;;;;;;;;0.43;100.00;101595.19;5276842;28;19925;-65
2022/12/19 00:55:48;;;;;;;;;;;;;;;0.55;100.00;101577.38;5271733;28;19979;-65
2022/12/19 00:58:19;;;;;;;;;;;;;;;0.50;100.00;101571.38;5278732;28;19920;-64
2022/12/19 01:00:50;;;;;;;;;;;;;;;0.59;100.00;101554.53;5281369;28;20319;-64
2022/12/19 01:03:22;;;;;;;;;;;;;;;0.54;100.00;101554.66;5283809;28;19931;-65
2022/12/19 01:05:53;;;;;;;;;;;;;;;0.58;100.00;101564.19;5277521;28;19920;-64
2022/12/19 01:08:24;;;;;;;;;;;;;;;0.54;100.00;101572.19;5273611;28;19972;-64
2022/12/19 01:10:56;;;;;;;;;;;;;;;0.60;100.00;101566.78;5271719;28;19916;-65
2022/12/19 01:13:28;;;;;;;;;;;;;;;0.66;100.00;101557.91;5268296;28;19944;-64
2022/12/19 01:16:03;;;;;;;;;;;;;;;0.67;100.00;101559.59;5272992;28;19924;-64
2022/12/19 01:18:34;;;;;;;;;;;;;;;0.63;100.00;101566.69;5270791;28;19932;-64
2022/12/19 01:21:07;;;;;;;;;;;;;;;0.66;100.00;101550.88;5251993;28;21664;-64
2022/12/19 01:23:38;;;;;;;;;;;;;;;0.67;100.00;101542.09;5271403;28;20362;-64
2022/12/19 01:26:09;;;;;;;;;;;;;;;0.64;100.00;101542.16;5270749;28;19930;-64
2022/12/19 01:28:40;;;;;;;;;;;;;;;0.70;100.00;101538.53;5276218;28;19955;-64
2022/12/19 01:31:11;;;;;;;;;;;;;;;0.69;100.00;101534.16;5271252;28;20402;-64
2022/12/19 01:33:42;;;;;;;;;;;;;;;0.67;100.00;101535.97;5272500;28;20250;-64
2022/12/19 01:36:14;;;;;;;;;;;;;;;0.69;100.00;101532.44;5276448;28;20395;-64
2022/12/19 01:38:45;;;;;;;;;;;;;;;0.70;100.00;101536.75;5273368;28;20001;-64
2022/12/19 01:41:16;;;;;;;;;;;;;;;0.74;100.00;101538.41;5273573;28;19925;-64
2022/12/19 01:43:55;;;;;;;;;;;;;;;0.71;100.00;101535.00;5272199;28;20003;-64
2022/12/19 01:46:47;;;;;;;;;;;;;;;0.75;100.00;101534.03;5271342;28;19924;-64
2022/12/19 01:49:31;;;;;;;;;;;;;;;0.75;100.00;101534.03;5271257;28;19916;-64
2022/12/19 01:52:04;;;;;;;;;;;;;;;0.78;100.00;101526.06;5276119;28;19920;-64
2022/12/19 01:54:37;;;;;;;;;;;;;;;0.76;100.00;101541.00;5270265;28;19924;-64
2022/12/19 01:57:12;;;;;;;;;;;;;;;0.82;100.00;101530.34;5274703;28;19924;-64
2022/12/19 01:59:49;;;;;;;;;;;;;;;0.80;100.00;101532.13;5272145;28;19924;-64
2022/12/19 02:02:22;;;;;;;;;;;;;;;0.81;100.00;101523.38;5283199;28;19920;-64
2022/12/19 02:04:54;;;;;;;;;;;;;;;0.85;100.00;101530.28;5270231;28;19931;-64
2022/12/19 02:07:25;;;;;;;;;;;;;;;0.81;100.00;101520.75;5270205;28;19943;-64
2022/12/19 02:09:57;;;;;;;;;;;;;;;0.81;100.00;101512.88;5273183;28;20302;-64
2022/12/19 02:12:30;;;;;;;;;;;;;;;0.82;100.00;101506.69;5272402;28;19920;-64
2022/12/19 02:15:01;;;;;;;;;;;;;;;0.85;100.00;101493.50;5271107;28;19929;-64
2022/12/19 02:17:41;;;;;;;;;;;;;;;0.86;100.00;101494.34;5272509;28;19920;-64
2022/12/19 02:20:21;;;;;;;;;;;;;;;0.84;100.00;101493.53;5266919;28;19924;-64
2022/12/19 02:23:26;;;;;;;;;;;;;;;0.85;100.00;101485.63;5276645;28;19928;-64
2022/12/19 02:26:16;;;;;;;;;;;;;;;0.88;100.00;101479.41;5276322;28;19924;-64
2022/12/19 02:28:58;;;;;;;;;;;;;;;0.95;100.00;101481.84;5275000;28;20284;-64
2022/12/19 02:31:32;;;;;;;;;;;;;;;0.92;100.00;101473.16;5275694;28;19973;-64
2022/12/19 02:34:06;;;;;;;;;;;;;;;0.94;100.00;101471.38;5277102;28;19969;-64
2022/12/19 02:36:40;;;;;;;;;;;;;;;0.97;100.00;101484.44;5281287;28;20257;-64
2022/12/19 02:39:16;;;;;;;;;;;;;;;1.04;100.00;101474.63;5279144;28;20444;-64
2022/12/19 02:41:50;;;;;;;;;;;;;;;1.01;100.00;101472.06;5277056;28;20487;-64
2022/12/19 02:44:24;;;;;;;;;;;;;;;1.01;100.00;101472.06;5277151;28;19924;-64
2022/12/19 02:46:56;;;;;;;;;;;;;;;1.04;100.00;101464.13;5283747;28;20369;-64
2022/12/19 02:49:28;;;;;;;;;;;;;;;1.07;100.00;101454.38;5285053;28;20412;-64
2022/12/19 02:52:12;;;;;;;;;;;;;;;1.10;100.00;101456.06;5283732;28;20007;-64
2022/12/19 02:54:43;;;;;;;;;;;;;;;1.22;100.00;101449.59;5279039;28;20356;-64
2022/12/19 02:57:19;;;;;;;;;;;;;;;1.22;100.00;101442.56;5279090;28;19916;-64
2022/12/19 03:00:02;;;;;;;;;;;;;;;1.27;100.00;101434.59;5280004;28;20321;-64
2022/12/19 03:02:52;;;;;;;;;;;;;;;1.36;100.00;101426.41;5288980;28;19920;-64
2022/12/19 03:05:26;;;;;;;;;;;;;;;1.38;100.00;101432.47;5274849;28;20034;-64
2022/12/19 03:08:02;;;;;;;;;;;;;;;1.40;100.00;101438.59;5278480;28;19920;-64
2022/12/19 03:10:40;;;;;;;;;;;;;;;1.41;100.00;101436.81;5277573;28;20011;-64
2022/12/19 03:13:15;;;;;;;;;;;;;;;1.45;100.00;101433.19;5278869;28;19924;-64
2022/12/19 03:15:47;;;;;;;;;;;;;;;1.46;100.00;101433.13;5276169;28;20440;-64
2022/12/19 03:18:18;;;;;;;;;;;;;;;1.55;100.00;101437.25;5282821;28;19920;-64
2022/12/19 03:21:03;;;;;;;;;;;;;;;1.60;100.00;101431.88;5286791;28;20366;-64
2022/12/19 03:23:35;;;;;;;;;;;;;;;1.67;100.00;101439.53;5289916;28;19920;-64
2022/12/19 03:26:11;;;;;;;;;;;;;;;1.67;100.00;101426.38;5286787;28;19955;-64
2022/12/19 03:29:01;;;;;;;;;;;;;;;1.70;100.00;101423.63;5291985;28;19930;-64
2022/12/19 03:31:33;;;;;;;;;;;;;;;1.74;100.00;101429.69;5283884;28;19923;-65
2022/12/19 03:34:37;;;;;;;;;;;;;;;1.81;100.00;101422.47;5290825;28;19977;-64
2022/12/19 03:37:12;;;;;;;;;;;;;;;1.87;100.00;101414.38;5263359;28;19916;-64
2022/12/19 03:39:45;;;;;;;;;;;;;;;1.90;100.00;101422.19;5281858;28;20031;-65
2022/12/19 03:45:07;;;;;;;;;;;;;;;1.99;100.00;101407.88;5276913;28;20354;-64
2022/12/19 03:47:55;;;;;;;;;;;;;;;2.03;100.00;101410.34;5282767;28;19920;-65
2022/12/19 03:50:31;;;;;;;;;;;;;;;2.11;100.00;101418.00;5280149;28;19922;-64
2022/12/19 03:53:10;;;;;;;;;;;;;;;2.26;100.00;101412.25;5281312;28;20398;-64
2022/12/19 03:55:57;;;;;;;;;;;;;;;2.33;100.00;101405.00;5272353;28;20427;-65
2022/12/19 03:58:33;;;;;;;;;;;;;;;2.40;100.00;101405.66;5275327;28;19928;-64
2022/12/19 04:01:05;;;;;;;;;;;;;;;2.46;100.00;101414.22;5278780;28;20311;-64
2022/12/19 04:03:36;;;;;;;;;;;;;;;2.49;100.00;101411.50;5280053;28;19916;-65
2022/12/19 04:06:07;;;;;;;;;;;;;;;2.52;100.00;101403.47;5275914;28;19924;-64
2022/12/19 04:08:39;;;;;;;;;;;;;;;2.60;100.00;101397.09;5278777;28;20022;-64
2022/12/19 04:11:14;;;;;;;;;;;;;;;2.66;100.00;101408.25;5278597;28;19999;-64
2022/12/19 04:13:54;;;;;;;;;;;;;;;2.70;100.00;101409.91;5278392;28;19970;-64
2022/12/19 04:16:34;;;;;;;;;;;;;;;2.77;100.00;101401.78;5280647;28;20022;-64
2022/12/19 04:19:10;;;;;;;;;;;;;;;2.83;100.00;101394.50;5281744;28;20403;-64
2022/12/19 04:21:45;;;;;;;;;;;;;;;2.91;100.00;101389.81;5278245;28;21688;-64
2022/12/19 04:24:25;;;;;;;;;;;;;;;2.98;100.00;101387.84;5280644;28;19920;-64
2022/12/19 04:26:58;;;;;;;;;;;;;;;3.06;100.00;101384.91;5281007;28;20261;-64
2022/12/19 04:29:32;;;;;;;;;;;;;;;3.09;100.00;101390.09;5281203;28;19924;-64
2022/12/19 04:32:04;;;;;;;;;;;;;;;3.14;100.00;101385.50;5279198;28;19926;-64
2022/12/19 04:34:35;;;;;;;;;;;;;;;3.20;100.00;101387.03;5277670;28;19971;-64
2022/12/19 04:37:07;;;;;;;;;;;;;;;3.21;100.00;101381.72;5278622;28;19970;-64
2022/12/19 04:39:38;;;;;;;;;;;;;;;3.23;100.00;101374.59;5278685;28;20114;-64
2022/12/19 04:42:09;;;;;;;;;;;;;;;3.28;100.00;101377.06;5269292;28;20051;-64
2022/12/19 04:44:40;;;;;;;;;;;;;;;3.30;100.00;101384.00;5276913;28;20927;-64
2022/12/19 04:47:12;;;;;;;;;;;;;;;3.36;100.00;101380.28;5283109;28;19999;-64
2022/12/19 04:49:43;;;;;;;;;;;;;;;3.40;100.00;101384.53;5281618;28;19931;-64
2022/12/19 04:52:14;;;;;;;;;;;;;;;3.43;100.00;101375.63;5294560;28;19922;-65
2022/12/19 04:54:45;;;;;;;;;;;;;;;3.48;100.00;101379.81;5280610;28;20263;-65
2022/12/19 04:57:16;;;;;;;;;;;;;;;3.53;100.00;101382.28;5277726;28;20445;-64
2022/12/19 04:59:48;;;;;;;;;;;;;;;3.57;100.00;101378.59;5280518;28;19924;-64
2022/12/19 05:02:19;;;;;;;;;;;;;;;3.59;100.00;101381.19;5270226;28;19946;-65
2022/12/19 05:04:50;;;;;;;;;;;;;;;3.64;100.00;101374.78;5275116;28;20352;-65
2022/12/19 05:07:22;;;;;;;;;;;;;;;3.67;100.00;101382.59;5281115;28;19946;-65
2022/12/19 05:09:53;;;;;;;;;;;;;;;3.69;100.00;101372.84;5276157;28;19924;-65
2022/12/19 05:12:24;;;;;;;;;;;;;;;3.71;100.00;101373.63;5279871;28;19967;-65
2022/12/19 05:14:55;;;;;;;;;;;;;;;3.73;100.00;101374.44;5276545;28;20401;-64
2022/12/19 05:17:26;;;;;;;;;;;;;;;3.76;100.00;101365.56;5277466;28;19919;-64
2022/12/19 05:19:58;;;;;;;;;;;;;;;3.76;100.00;101380.50;5279383;28;20280;-64
2022/12/19 05:22:29;;;;;;;;;;;;;;;3.81;100.00;101357.44;5276717;28;19927;-64
2022/12/19 05:25:00;;;;;;;;;;;;;;;3.85;100.00;101370.44;5283195;28;19920;-64
2022/12/19 05:27:31;;;;;;;;;;;;;;;3.87;100.00;101359.84;5285419;28;19980;-64
2022/12/19 05:30:03;;;;;;;;;;;;;;;3.92;100.00;101376.34;5289810;28;20611;-64
2022/12/19 05:32:34;;;;;;;;;;;;;;;4.01;100.00;101361.91;5291580;28;19926;-65
2022/12/19 05:35:05;;;;;;;;;;;;;;;4.01;100.00;101369.81;5282326;28;19925;-64
2022/12/19 05:37:36;;;;;;;;;;;;;;;4.00;100.00;101355.78;5298267;28;20014;-64
2022/12/19 05:40:08;;;;;;;;;;;;;;;4.01;100.00;101365.44;5284822;28;20333;-64
2022/12/19 05:42:39;;;;;;;;;;;;;;;4.01;100.00;101357.50;5286293;28;19923;-64
2022/12/19 05:45:10;;;;;;;;;;;;;;;4.03;100.00;101368.00;5276761;28;19931;-65
2022/12/19 05:47:45;;;;;;;;;;;;;;;4.05;100.00;101363.53;5276763;28;20366;-64
2022/12/19 05:50:16;;;;;;;;;;;;;;;4.09;100.00;101362.47;5288540;28;19923;-64
2022/12/19 05:52:47;;;;;;;;;;;;;;;4.13;100.00;101372.84;5295358;28;19920;-64
2022/12/19 05:55:19;;;;;;;;;;;;;;;4.17;100.00;101364.78;5284703;28;19931;-64
2022/12/19 05:57:50;;;;;;;;;;;;;;;4.21;100.00;101371.66;5292930;28;20475;-64
2022/12/19 06:00:21;;;;;;;;;;;;;;;4.22;100.00;101376.00;5291334;28;19925;-64
2022/12/19 06:02:53;;;;;;;;;;;;;;;4.23;100.00;101369.81;5288724;28;19928;-64
2022/12/19 06:05:24;;;;;;;;;;;;;;;4.28;100.00;101367.84;5279014;28;20286;-64
2022/12/19 06:07:55;;;;;;;;;;;;;;;4.33;100.00;101368.50;5285715;28;20022;-64
2022/12/19 06:10:27;;;;;;;;;;;;;;;4.31;100.00;101368.59;5281635;28;19995;-64
2022/12/19 06:12:58;;;;;;;;;;;;;;;4.35;100.00;101368.44;5288119;28;20015;-64
2022/12/19 06:15:29;;;;;;;;;;;;;;;4.32;100.00;101369.44;5277979;28;20041;-64
2022/12/19 06:18:00;;;;;;;;;;;;;;;4.31;100.00;101367.69;5278890;28;19920;-64
2022/12/19 06:20:32;;;;;;;;;;;;;;;4.34;100.00;101370.22;5277879;28;20340;-64
2022/12/19 06:23:03;;;;;;;;;;;;;;;4.36;100.00;101365.75;5288309;28;20152;-64
2022/12/19 06:25:34;;;;;;;;;;;;;;;4.35;100.00;101358.72;5276653;28;19928;-64
2022/12/19 06:28:05;;;;;;;;;;;;;;;4.39;100.00;101362.97;5274997;28;19916;-64
2022/12/19 06:30:36;;;;;;;;;;;;;;;4.43;100.00;101367.22;5280038;28;19924;-64
2022/12/19 06:33:07;;;;;;;;;;;;;;;4.48;100.00;101367.00;5278392;28;20034;-64
2022/12/19 06:35:39;;;;;;;;;;;;;;;4.50;100.00;101371.28;5276372;28;19928;-65
2022/12/19 06:38:10;;;;;;;;;;;;;;;4.54;100.00;101377.31;5277557;28;20007;-65
2022/12/19 06:43:34;;;;;;;;;;;;;;;4.61;100.00;101391.13;5271127;28;19967;-65
2022/12/19 06:46:06;;;;;;;;;;;;;;;4.64;100.00;101396.25;5276984;28;20317;-64
2022/12/19 06:48:37;;;;;;;;;;;;;;;4.68;100.00;101382.88;5279463;28;19917;-64
2022/12/19 06:51:08;;;;;;;;;;;;;;;4.69;100.00;101381.91;5270343;28;20477;-64
2022/12/19 06:53:39;;;;;;;;;;;;;;;4.69;100.00;101384.56;5274062;28;19920;-64
2022/12/19 06:56:12;;;;;;;;;;;;;;;4.76;100.00;101390.47;5266837;28;19967;-64
2022/12/19 06:58:43;;;;;;;;;;;;;;;4.76;100.00;101384.31;5273769;28;19928;-64
2022/12/19 07:01:15;;;;;;;;;;;;;;;4.76;100.00;101385.19;5279004;28;20838;-64
2022/12/19 07:03:47;;;;;;;;;;;;;;;4.79;100.00;101389.47;5283631;28;20009;-64
2022/12/19 07:06:19;;;;;;;;;;;;;;;4.80;100.00;101397.34;5212447;28;19924;-64
2022/12/19 07:08:51;;;;;;;;;;;;;;;4.80;100.00;101383.25;5267217;28;21084;-64
2022/12/19 07:11:22;;;;;;;;;;;;;;;4.83;100.00;101389.28;5286916;28;20301;-64
2022/12/19 07:13:54;;;;;;;;;;;;;;;4.86;100.00;101383.00;5280386;28;19928;-64
2022/12/19 07:16:25;;;;;;;;;;;;;;;4.89;100.00;101378.44;5276285;28;20062;-64
2022/12/19 07:18:57;;;;;;;;;;;;;;;4.88;100.00;101381.97;5274852;28;19977;-64
2022/12/19 07:21:29;;;;;;;;;;;;;;;4.89;100.00;101389.00;5291832;28;19928;-64
2022/12/19 07:24:00;;;;;;;;;;;;;;;4.91;100.00;101387.16;5281196;28;19920;-64
2022/12/19 07:26:31;;;;;;;;;;;;;;;4.96;100.00;101391.38;5278843;28;19924;-64
2022/12/19 07:29:03;;;;;;;;;;;;;;;4.96;100.00;101380.78;5274798;28;20381;-64
2022/12/19 07:31:34;;;;;;;;;;;;;;;4.97;100.00;101382.53;5281182;28;19928;-64
2022/12/19 07:34:05;;;;;;;;;;;;;;;5.00;100.00;101382.38;5278554;28;19924;-64
2022/12/19 07:36:36;;;;;;;;;;;;;;;5.01;100.00;101389.38;5277249;28;20031;-64
2022/12/19 07:39:07;;;;;;;;;;;;;;;5.01;100.00;101384.09;5279924;28;20393;-63
2022/12/19 07:41:38;;;;;;;;;;;;;;;5.01;100.00;101390.25;5280456;28;19920;-64
2022/12/19 07:44:12;;;;;;;;;;;;;;;5.00;100.00;101388.50;5277267;28;20381;-63
2022/12/19 07:46:43;;;;;;;;;;;;;;;5.02;100.00;101391.09;5280681;28;20437;-63
2022/12/19 07:49:15;;;;;;;;;;;;;;;5.02;100.00;101388.44;5277012;28;20039;-63
2022/12/19 07:51:46;;;;;;;;;;;;;;;5.04;100.00;101383.94;5275379;28;19920;-64
2022/12/19 07:54:18;;;;;;;;;;;;;;;5.04;100.00;101389.22;5282166;28;19946;-64
2022/12/19 07:56:49;;;;;;;;;;;;;;;5.04;100.00;101391.88;5292765;28;20297;-63
2022/12/19 07:59:20;;;;;;;;;;;;;;;5.07;100.00;101404.97;5289691;28;20377;-64
2022/12/19 08:01:51;;;;;;;;;;;;;;;5.07;100.00;101397.91;5289953;28;19931;-63
2022/12/19 08:04:23;;;;;;;;;;;;;;;5.09;100.00;101403.97;5292312;28;19916;-63
2022/12/19 08:06:54;;;;;;;;;;;;;;;5.09;100.00;101403.97;5286529;28;20444;-63
2022/12/19 08:09:26;;;;;;;;;;;;;;;5.08;100.00;101414.63;5281759;28;19932;-64
2022/12/19 08:11:58;;;;;;;;;;;;;;;5.09;100.00;101414.56;5279856;28;20019;-64
2022/12/19 08:14:29;;;;;;;;;;;;;;;5.13;100.00;101417.06;5289858;28;19926;-64
2022/12/19 08:17:00;;;;;;;;;;;;;;;5.24;100.00;101415.66;5301654;28;20298;-64
2022/12/19 08:19:31;;;;;;;;;;;;;;;5.29;100.00;101407.50;5293051;28;19923;-64
2022/12/19 08:22:02;;;;;;;;;;;;;;;5.26;100.00;101403.22;5286311;28;19965;-64
2022/12/19 08:24:34;;;;;;;;;;;;;;;5.25;100.00;101401.53;5288810;28;19928;-64
2022/12/19 08:27:05;;;;;;;;;;;;;;;5.26;100.00;101405.88;5287851;28;19924;-64
2022/12/19 08:29:36;;;;;;;;;;;;;;;5.28;100.00;101403.16;5287494;28;19920;-64
2022/12/19 08:32:08;;;;;;;;;;;;;;;5.30;100.00;101411.88;5287447;28;20254;-64
2022/12/19 08:34:39;;;;;;;;;;;;;;;5.28;100.00;101409.28;5288082;28;19920;-64
2022/12/19 08:37:10;;;;;;;;;;;;;;;5.30;100.00;101409.22;5283768;28;19920;-64
2022/12/19 08:39:41;;;;;;;;;;;;;;;5.29;100.00;101413.69;5295689;28;20011;-64
2022/12/19 08:42:12;;;;;;;;;;;;;;;5.32;100.00;101422.41;5291466;28;19920;-63
2022/12/19 08:44:44;;;;;;;;;;;;;;;5.38;100.00;101425.63;5287804;28;20006;-64
2022/12/19 08:47:15;;;;;;;;;;;;;;;5.39;100.00;101424.69;5286976;28;20271;-64
2022/12/19 08:49:46;;;;;;;;;;;;;;;5.41;100.00;101414.06;5285089;28;19923;-64
2022/12/19 08:52:17;;;;;;;;;;;;;;;5.41;100.00;101414.91;5281631;28;20515;-64
2022/12/19 08:54:48;;;;;;;;;;;;;;;5.45;100.00;101420.91;5291045;28;19924;-63
2022/12/19 08:57:20;;;;;;;;;;;;;;;5.46;100.00;101414.69;5287539;28;19917;-64
2022/12/19 08:59:51;;;;;;;;;;;;;;;5.47;100.00;101419.06;5289035;28;19921;-64
2022/12/19 09:02:23;;;;;;;;;;;;;;;5.47;100.00;101416.41;5286668;28;20011;-64
2022/12/19 09:04:54;;;;;;;;;;;;;;;5.51;100.00;101420.63;5287637;28;19924;-64
2022/12/19 09:07:25;;;;;;;;;;;;;;;5.56;100.00;101426.56;5289773;28;19924;-64
2022/12/19 09:09:56;;;;;;;;;;;;;;;5.56;100.00;101421.28;5286085;28;19970;-64
2022/12/19 09:12:27;;;;;;;;;;;;;;;5.57;100.00;101425.63;5282383;28;20362;-64
2022/12/19 09:14:59;;;;;;;;;;;;;;;5.64;100.00;101428.88;5285494;28;20366;-64
2022/12/19 09:17:30;;;;;;;;;;;;;;;5.62;100.00;101433.34;5297674;28;19920;-64
2022/12/19 09:20:01;;;;;;;;;;;;;;;5.61;100.00;101440.44;5286352;28;20366;-64
2022/12/19 09:22:32;;;;;;;;;;;;;;;5.64;100.00;101439.47;5294124;28;20385;-64
2022/12/19 09:25:04;;;;;;;;;;;;;;;5.63;100.00;101433.28;5282908;28;19945;-64
2022/12/19 09:27:35;;;;;;;;;;;;;;;5.67;100.00;101434.00;5292101;28;19991;-64
2022/12/19 09:30:07;;;;;;;;;;;;;;;5.67;100.00;101440.16;5286269;28;20112;-64
2022/12/19 09:32:38;;;;;;;;;;;;;;;5.66;100.00;101435.81;5289351;28;19962;-64
2022/12/19 09:35:09;;;;;;;;;;;;;;;5.65;100.00;101439.34;5295045;28;19928;-64
2022/12/19 09:37:40;;;;;;;;;;;;;;;5.68;100.00;101435.72;5295459;28;20282;-64
2022/12/19 09:40:14;;;;;;;;;;;;;;;5.69;100.00;101438.31;5282763;28;19920;-64
2022/12/19 09:42:45;;;;;;;;;;;;;;;5.69;100.00;101438.31;5293518;28;19966;-63
2022/12/19 09:45:19;;;;;;;;;;;;;;;5.70;100.00;101434.72;5280041;28;20010;-64
2022/12/19 09:47:54;;;;;;;;;;;;;;;5.74;100.00;101443.38;5297614;28;20433;-64
2022/12/19 09:50:28;;;;;;;;;;;;;;;5.76;100.00;101428.28;5288542;28;19966;-63
2022/12/19 09:53:02;;;;;;;;;;;;;;;5.82;100.00;101437.72;5283759;28;19928;-64
2022/12/19 09:55:36;;;;;;;;;;;;;;;5.88;100.00;101437.44;5288926;28;19931;-64
2022/12/19 09:58:12;;;;;;;;;;;;;;;5.92;100.00;101432.84;5286360;28;19912;-64
2022/12/19 10:01:04;;;;;;;;;;;;;;;5.95;100.00;101441.56;5288141;28;19916;-64
2022/12/19 10:03:47;;;;;;;;;;;;;;;5.99;100.00;101447.56;5284076;28;19921;-64
2022/12/19 10:06:20;;;;;;;;;;;;;;;6.01;100.00;101453.66;5289741;28;19927;-64
2022/12/19 10:08:51;;;;;;;;;;;;;;;6.02;100.00;101442.09;5282434;28;19916;-64
2022/12/19 10:11:38;;;;;;;;;;;;;;;6.03;100.00;101438.53;5293046;28;20543;-64
2022/12/19 10:14:31;;;;;;;;;;;;;;;6.03;100.00;101441.19;5291253;28;19965;-64
2022/12/19 10:17:15;;;;;;;;;;;;;;;6.05;100.00;101445.47;5281525;28;20003;-64
2022/12/19 10:19:58;;;;;;;;;;;;;;;6.09;100.00;101444.38;5284993;28;20401;-64
2022/12/19 10:22:32;;;;;;;;;;;;;;;6.11;100.00;101441.66;5281570;28;19920;-64
2022/12/19 10:25:25;;;;;;;;;;;;;;;6.14;100.00;101443.31;5294308;28;19912;-64
2022/12/19 10:28:14;;;;;;;;;;;;;;;6.13;100.00;101445.09;5286216;28;19920;-64
2022/12/19 10:31:09;;;;;;;;;;;;;;;6.13;100.00;101444.25;5284523;28;19969;-64
2022/12/19 10:34:00;;;;;;;;;;;;;;;6.11;100.00;101446.13;5274391;28;19916;-64
2022/12/19 10:36:37;;;;;;;;;;;;;;;6.11;100.00;101454.91;5287403;28;19970;-64
2022/12/19 10:39:13;;;;;;;;;;;;;;;6.11;100.00;101448.75;5288169;28;19931;-64
2022/12/19 10:41:46;;;;;;;;;;;;;;;6.11;100.00;101446.13;5282949;28;20212;-64
2022/12/19 10:44:17;;;;;;;;;;;;;;;6.11;100.00;101446.97;5285303;28;19917;-64
2022/12/19 10:46:49;;;;;;;;;;;;;;;6.14;100.00;101453.94;5295744;28;20310;-64
2022/12/19 10:49:21;;;;;;;;;;;;;;;6.15;100.00;101445.88;5279310;28;20400;-64
2022/12/19 10:52:04;;;;;;;;;;;;;;;6.22;100.00;101449.09;5293144;28;19920;-64
2022/12/19 10:54:38;;;;;;;;;;;;;;;6.23;100.00;101450.81;5288794;28;20374;-64
2022/12/19 10:57:15;;;;;;;;;;;;;;;6.23;100.00;101446.38;5282470;28;19955;-64
2022/12/19 10:59:53;;;;;;;;;;;;;;;6.26;100.00;101446.22;5287361;28;20394;-64
2022/12/19 11:02:39;;;;;;;;;;;;;;;6.26;100.00;101448.00;5294450;28;19924;-64
2022/12/19 11:05:29;;;;;;;;;;;;;;;6.27;100.00;101436.47;5293795;28;19971;-64
2022/12/19 11:08:01;;;;;;;;;;;;;;;6.28;100.00;101425.78;5292692;28;20331;-64
2022/12/19 11:10:33;;;;;;;;;;;;;;;6.28;100.00;101438.19;5284670;28;19962;-64
2022/12/19 11:13:23;;;;;;;;;;;;;;;6.28;100.00;101430.25;5285964;28;19924;-64
2022/12/19 11:15:56;;;;;;;;;;;;;;;6.28;100.00;101438.19;5287675;28;20015;-64
2022/12/19 11:18:46;;;;;;;;;;;;;;;6.30;100.00;101424.88;5289998;28;20342;-65
2022/12/19 11:21:27;;;;;;;;;;;;;;;6.30;100.00;101409.81;5288469;28;19970;-64
2022/12/19 11:23:58;;;;;;;;;;;;;;;6.32;100.00;101405.31;5290748;28;20528;-64
2022/12/19 11:26:32;;;;;;;;;;;;;;;6.33;100.00;101409.69;5296941;28;19919;-64
2022/12/19 11:29:19;;;;;;;;;;;;;;;6.35;100.00;101401.63;5291389;28;19916;-64
2022/12/19 11:31:59;;;;;;;;;;;;;;;6.36;100.00;101406.00;5291442;28;19924;-65
2022/12/19 11:34:34;;;;;;;;;;;;;;;6.37;100.00;101402.44;5298670;28;19919;-64
2022/12/19 11:37:15;;;;;;;;;;;;;;;6.39;100.00;101395.28;5282416;28;19921;-64
2022/12/19 11:39:49;;;;;;;;;;;;;;;6.39;100.00;101397.94;5283280;28;19916;-65
2022/12/19 11:42:20;;;;;;;;;;;;;;;6.38;100.00;101396.19;5285206;28;19913;-65
2022/12/19 11:44:57;;;;;;;;;;;;;;;6.40;100.00;101389.88;5293991;28;19935;-64
2022/12/19 11:47:28;;;;;;;;;;;;;;;6.41;100.00;101386.31;5293103;28;20540;-65
2022/12/19 11:50:10;;;;;;;;;;;;;;;6.43;100.00;101386.22;5285816;28;19926;-65
2022/12/19 11:52:46;;;;;;;;;;;;;;;6.49;100.00;101380.63;5286012;28;19959;-65
2022/12/19 11:55:36;;;;;;;;;;;;;;;6.52;100.00;101392.84;5285339;28;19928;-65
2022/12/19 11:58:08;;;;;;;;;;;;;;;6.54;100.00;101393.63;5278282;28;19924;-65
2022/12/19 12:00:46;;;;;;;;;;;;;;;6.54;100.00;101386.53;5283049;28;19920;-65
2022/12/19 12:03:39;;;;;;;;;;;;;;;6.54;100.00;101386.53;5289719;28;20413;-66
2022/12/19 12:06:16;;;;;;;;;;;;;;;6.59;100.00;101381.84;5289465;28;20015;-65
2022/12/19 12:08:53;;;;;;;;;;;;;;;6.61;100.00;101371.16;5285753;28;20299;-65
2022/12/19 12:11:24;;;;;;;;;;;;;;;6.63;100.00;101383.41;5296426;28;19924;-65
2022/12/19 12:14:13;;;;;;;;;;;;;;;6.66;100.00;101370.00;5288045;28;19925;-65
2022/12/19 12:16:51;;;;;;;;;;;;;;;6.67;100.00;101370.84;5284619;28;19928;-65
2022/12/19 12:19:30;;;;;;;;;;;;;;;6.67;100.00;101365.53;5277690;28;20105;-65
2022/12/19 12:22:13;;;;;;;;;;;;;;;6.66;100.00;101358.53;5281647;28;19988;-65
2022/12/19 12:25:22;;;;;;;;;;;;;;;6.67;100.00;101362.88;5287803;28;19980;-65
2022/12/19 12:28:09;;;;;;;;;;;;;;;6.72;100.00;101357.38;5225355;28;19926;-65
2022/12/19 12:30:50;;;;;;;;;;;;;;;6.75;100.00;101350.13;5226823;28;20341;-65
2022/12/19 12:33:23;;;;;;;;;;;;;;;6.80;100.00;101341.91;5266598;28;19924;-65
2022/12/19 12:36:00;;;;;;;;;;;;;;;6.81;100.00;101343.63;5292987;28;19928;-65
2022/12/19 12:38:41;;;;;;;;;;;;;;;6.83;100.00;101355.00;5282780;28;19927;-66
2022/12/19 12:41:15;;;;;;;;;;;;;;;6.85;100.00;101358.44;5293138;28;20382;-66
2022/12/19 12:43:55;;;;;;;;;;;;;;;6.89;100.00;101359.13;5287429;28;19921;-65
2022/12/19 12:46:33;;;;;;;;;;;;;;;6.92;100.00;101348.34;5288505;28;19920;-65
2022/12/19 12:49:14;;;;;;;;;;;;;;;6.95;100.00;101340.25;5289387;28;19921;-66
2022/12/19 12:51:45;;;;;;;;;;;;;;;6.97;100.00;101347.16;5287803;28;20137;-66
2022/12/19 12:54:17;;;;;;;;;;;;;;;7.02;100.00;101355.75;5282481;28;20495;-66
2022/12/19 12:56:48;;;;;;;;;;;;;;;7.03;100.00;101343.31;5292600;28;19928;-66
2022/12/19 12:59:24;;;;;;;;;;;;;;;7.07;100.00;101344.88;5289419;28;19924;-66
2022/12/19 13:01:58;;;;;;;;;;;;;;;7.06;100.00;101333.41;5289116;28;20515;-66
2022/12/19 13:04:32;;;;;;;;;;;;;;;7.07;100.00;101332.47;5286007;28;20466;-66
2022/12/19 13:07:12;;;;;;;;;;;;;;;7.10;100.00;101320.00;5289720;28;20426;-66
2022/12/19 13:09:45;;;;;;;;;;;;;;;7.11;100.00;101308.41;5280251;28;20897;-66
2022/12/19 13:15:17;;;;;;;;;;;;;;;7.14;100.00;101287.88;5282033;28;20480;-66
2022/12/19 13:17:48;;;;;;;;;;;;;;;7.16;100.00;101293.97;5284721;28;19954;-66
2022/12/19 13:20:22;;;;;;;;;;;;;;;7.20;100.00;101281.38;5284344;28;20814;-66